createdAt,value
2017-11-10T00:01:03.248Z,14.93
2017-11-10T00:03:29.853Z,17.15
2017-11-10T00:05:56.317Z,18.15
2017-11-10T00:08:22.871Z,17.55
2017-11-10T00:10:49.323Z,18.17
2017-11-10T00:13:16.007Z,23.33
2017-11-10T00:15:43.227Z,19.30
2017-11-10T00:18:09.680Z,20.62
2017-11-10T00:20:36.195Z,18.50
2017-11-10T00:23:02.628Z,23.42
2017-11-10T00:25:29.100Z,22.33
2017-11-10T00:28:03.668Z,21.55
2017-11-10T00:30:30.109Z,23.02
2017-11-10T00:32:56.600Z,25.17
2017-11-10T00:35:23.041Z,19.98
2017-11-10T00:37:49.482Z,24.17
2017-11-10T00:40:15.980Z,20.10
2017-11-10T00:42:42.440Z,22.92
2017-11-10T00:45:08.957Z,22.45
2017-11-10T00:47:35.397Z,25.23
2017-11-10T00:50:01.932Z,29.00
2017-11-10T00:52:28.577Z,29.10
2017-11-10T00:54:55.055Z,31.37
2017-11-10T00:57:21.635Z,27.02
2017-11-10T00:59:48.080Z,31.20
2017-11-10T01:02:14.602Z,30.65
2017-11-10T01:04:41.785Z,33.40
2017-11-10T01:07:08.268Z,34.05
2017-11-10T01:09:34.803Z,17.60
2017-11-10T01:12:01.337Z,28.50
2017-11-10T01:14:27.833Z,41.75
2017-11-10T01:16:54.362Z,37.40
2017-11-10T01:19:21.568Z,34.88
2017-11-10T01:21:48.014Z,35.55
2017-11-10T01:24:14.451Z,39.85
2017-11-10T01:26:41.061Z,29.58
2017-11-10T01:29:07.540Z,36.58
2017-11-10T01:31:34.038Z,23.90
2017-11-10T01:34:00.462Z,23.27
2017-11-10T01:36:27.721Z,41.97
2017-11-10T01:38:54.163Z,46.33
2017-11-10T01:41:20.602Z,36.63
2017-11-10T01:43:47.058Z,43.90
2017-11-10T01:46:13.559Z,54.38
2017-11-10T01:48:42.682Z,44.72
2017-11-10T01:51:09.107Z,47.25
2017-11-10T01:53:36.337Z,45.22
2017-11-10T01:56:02.761Z,44.00
2017-11-10T01:58:29.210Z,41.22
2017-11-10T02:00:55.657Z,41.35
2017-11-10T02:03:22.087Z,45.38
2017-11-10T02:05:48.568Z,34.15
2017-11-10T02:08:15.126Z,39.20
2017-11-10T02:10:41.564Z,37.78
2017-11-10T02:13:08.012Z,30.55
2017-11-10T02:15:34.427Z,35.85
2017-11-10T02:18:00.889Z,38.33
2017-11-10T02:20:27.500Z,30.98
2017-11-10T02:22:54.100Z,32.15
2017-11-10T02:25:20.662Z,38.97
2017-11-10T02:27:47.118Z,41.92
2017-11-10T02:30:14.317Z,36.95
2017-11-10T02:32:40.727Z,41.80
2017-11-10T02:35:07.267Z,44.30
2017-11-10T02:37:33.693Z,37.63
2017-11-10T02:40:15.023Z,41.50
2017-11-10T02:42:41.480Z,40.63
2017-11-10T02:45:08.006Z,38.00
2017-11-10T02:47:34.448Z,42.83
2017-11-10T02:50:00.886Z,37.65
2017-11-10T02:52:27.441Z,36.78
2017-11-10T02:54:53.944Z,40.70
2017-11-10T02:57:20.373Z,47.25
2017-11-10T02:59:46.860Z,44.35
2017-11-10T03:02:14.033Z,41.03
2017-11-10T03:04:41.280Z,42.85
2017-11-10T03:07:07.881Z,46.90
2017-11-10T03:09:34.305Z,32.83
2017-11-10T03:12:00.724Z,48.60
2017-11-10T03:14:27.173Z,46.50
2017-11-10T03:16:53.748Z,41.28
2017-11-10T03:19:20.164Z,43.85
2017-11-10T03:21:46.642Z,45.03
2017-11-10T03:24:13.241Z,43.25
2017-11-10T03:26:39.690Z,47.85
2017-11-10T03:29:06.120Z,52.08
2017-11-10T03:31:32.585Z,45.60
2017-11-10T03:33:59.113Z,43.35
2017-11-10T03:36:25.562Z,50.85
2017-11-10T03:38:52.004Z,49.13
2017-11-10T03:41:18.472Z,52.95
2017-11-10T03:43:45.664Z,44.70
2017-11-10T03:46:12.102Z,45.05
2017-11-10T03:48:38.558Z,49.53
2017-11-10T03:51:05.018Z,55.97
2017-11-10T03:53:31.476Z,45.10
2017-11-10T03:55:57.969Z,55.22
2017-11-10T03:58:24.401Z,50.97
2017-11-10T04:00:50.856Z,52.83
2017-11-10T04:03:17.329Z,50.80
2017-11-10T04:05:43.805Z,52.03
2017-11-10T04:08:10.276Z,49.33
2017-11-10T04:10:36.715Z,50.75
2017-11-10T04:13:03.188Z,49.90
2017-11-10T04:15:29.701Z,55.55
2017-11-10T04:17:56.162Z,47.40
2017-11-10T04:20:22.608Z,45.75
2017-11-10T04:22:49.817Z,45.65
2017-11-10T04:25:16.269Z,52.80
2017-11-10T04:27:42.708Z,53.40
2017-11-10T04:30:09.192Z,51.95
2017-11-10T04:32:36.363Z,47.85
2017-11-10T04:35:02.773Z,48.03
2017-11-10T04:37:29.255Z,52.90
2017-11-10T04:39:55.777Z,52.55
2017-11-10T04:42:22.220Z,50.22
2017-11-10T04:44:48.658Z,52.03
2017-11-10T04:47:15.233Z,54.88
2017-11-10T04:49:41.809Z,48.30
2017-11-10T04:52:08.247Z,44.70
2017-11-10T04:54:35.512Z,43.65
2017-11-10T04:57:01.923Z,47.80
2017-11-10T04:59:28.392Z,44.25
2017-11-10T05:01:54.818Z,51.37
2017-11-10T05:04:21.249Z,42.80
2017-11-10T05:06:47.867Z,56.63
2017-11-10T05:09:16.362Z,45.17
2017-11-10T05:11:42.840Z,45.30
2017-11-10T05:14:10.042Z,45.42
2017-11-10T05:16:36.488Z,44.72
2017-11-10T05:19:02.921Z,44.60
2017-11-10T05:21:29.356Z,38.53
2017-11-10T05:23:55.841Z,38.58
2017-11-10T05:26:22.283Z,35.35
2017-11-10T05:28:48.754Z,36.40
2017-11-10T05:31:15.248Z,43.85
2017-11-10T05:33:41.677Z,35.85
2017-11-10T05:36:08.162Z,34.55
2017-11-10T05:38:35.494Z,38.30
2017-11-10T05:41:01.948Z,34.75
2017-11-10T05:43:29.161Z,36.58
2017-11-10T05:45:55.598Z,37.28
2017-11-10T05:48:22.059Z,37.25
2017-11-10T05:50:48.508Z,36.05
2017-11-10T05:53:15.703Z,39.10
2017-11-10T05:55:42.124Z,36.67
2017-11-10T05:58:09.484Z,33.63
2017-11-10T06:00:36.663Z,32.05
2017-11-10T06:03:03.102Z,30.73
2017-11-10T06:05:29.577Z,32.90
2017-11-10T06:07:56.036Z,25.98
2017-11-10T06:10:22.514Z,30.27
2017-11-10T06:12:49.133Z,24.77
2017-11-10T06:15:16.346Z,23.58
2017-11-10T06:17:42.796Z,25.83
2017-11-10T06:20:09.286Z,28.40
2017-11-10T06:22:35.721Z,24.20
2017-11-10T06:25:02.214Z,23.10
2017-11-10T06:27:29.462Z,21.58
2017-11-10T06:29:55.898Z,22.25
2017-11-10T06:32:22.366Z,22.92
2017-11-10T06:34:49.557Z,25.35
2017-11-10T06:37:16.047Z,23.80
2017-11-10T06:39:42.478Z,22.15
2017-11-10T06:42:08.975Z,22.80
2017-11-10T06:44:35.613Z,23.00
2017-11-10T06:47:02.054Z,16.42
2017-11-10T06:49:28.538Z,17.98
2017-11-10T06:51:54.965Z,22.95
2017-11-10T06:54:21.499Z,25.58
2017-11-10T06:56:47.940Z,27.83
2017-11-10T06:59:14.382Z,24.90
2017-11-10T07:01:40.845Z,23.35
2017-11-10T07:04:07.345Z,28.33
2017-11-10T07:06:33.848Z,22.23
2017-11-10T07:09:01.040Z,26.73
2017-11-10T07:11:27.981Z,22.85
2017-11-10T07:13:54.479Z,23.27
2017-11-10T07:16:21.064Z,24.52
2017-11-10T07:18:47.774Z,25.65
2017-11-10T07:21:15.075Z,23.40
2017-11-10T07:23:41.560Z,22.65
2017-11-10T07:26:08.046Z,20.37
2017-11-10T07:28:34.492Z,27.40
2017-11-10T07:31:01.036Z,26.27
2017-11-10T07:33:27.526Z,21.35
2017-11-10T07:35:54.755Z,24.90
2017-11-10T07:38:21.408Z,30.00
2017-11-10T07:40:47.873Z,23.45
2017-11-10T07:43:15.054Z,23.95
2017-11-10T07:45:41.540Z,25.52
2017-11-10T07:48:08.040Z,24.10
2017-11-10T07:50:34.481Z,22.02
2017-11-10T07:53:00.975Z,17.75
2017-11-10T07:55:27.469Z,22.98
2017-11-10T07:57:53.908Z,21.77
2017-11-10T08:00:20.349Z,26.42
2017-11-10T08:02:47.036Z,20.35
2017-11-10T08:05:14.269Z,25.15
2017-11-10T08:07:40.760Z,23.67
2017-11-10T08:10:07.220Z,23.65
2017-11-10T08:12:33.814Z,25.62
2017-11-10T08:15:01.142Z,22.27
2017-11-10T08:17:27.711Z,27.08
2017-11-10T08:19:54.257Z,23.70
2017-11-10T08:22:21.564Z,12.50
2017-11-10T08:24:48.065Z,22.62
2017-11-10T08:27:14.840Z,20.12
2017-11-10T08:29:41.425Z,14.63
2017-11-10T08:34:41.923Z,17.37
2017-11-10T08:37:08.353Z,19.42
2017-11-10T08:39:34.859Z,21.25
2017-11-10T08:42:01.321Z,16.50
2017-11-10T08:44:28.537Z,18.55
2017-11-10T08:46:54.998Z,16.27
2017-11-10T08:49:21.627Z,23.65
2017-11-10T08:51:48.074Z,17.85
2017-11-10T08:54:14.547Z,18.10
2017-11-10T08:56:41.757Z,11.00
2017-11-10T08:59:08.187Z,15.70
2017-11-10T09:01:34.664Z,11.45
2017-11-10T09:04:01.873Z,19.62
2017-11-10T09:06:28.342Z,15.98
2017-11-10T09:08:56.651Z,15.00
2017-11-10T09:11:24.009Z,14.52
2017-11-10T09:13:51.218Z,20.08
2017-11-10T09:16:17.705Z,20.15
2017-11-10T09:18:44.893Z,20.58
2017-11-10T09:21:11.342Z,14.70
2017-11-10T09:23:37.824Z,20.17
2017-11-10T09:26:05.146Z,22.27
2017-11-10T09:28:37.637Z,29.70
2017-11-10T09:31:06.090Z,34.28
2017-11-10T09:33:35.310Z,27.30
2017-11-10T09:36:07.905Z,14.23
2017-11-10T09:38:40.288Z,22.90
2017-11-10T09:41:23.126Z,18.55
2017-11-10T09:44:11.416Z,16.17
2017-11-10T09:46:54.764Z,12.20
2017-11-10T09:49:27.527Z,15.30
2017-11-10T09:51:53.976Z,19.83
2017-11-10T09:54:35.369Z,17.83
2017-11-10T09:57:05.557Z,12.50
2017-11-10T09:59:47.849Z,13.00
2017-11-10T10:02:19.212Z,14.90
2017-11-10T10:04:52.050Z,8.93
2017-11-10T10:07:22.261Z,15.55
2017-11-10T10:10:10.398Z,11.80
2017-11-10T10:12:52.483Z,16.40
2017-11-10T10:15:21.221Z,15.45
2017-11-10T10:17:53.712Z,16.55
2017-11-10T10:20:33.234Z,20.83
2017-11-10T10:23:06.692Z,15.15
2017-11-10T10:25:33.133Z,10.55
2017-11-10T10:28:00.356Z,13.50
2017-11-10T10:30:26.783Z,15.07
2017-11-10T10:32:53.238Z,14.10
2017-11-10T10:35:19.738Z,16.87
2017-11-10T10:37:46.218Z,10.88
2017-11-10T10:40:13.081Z,16.87
2017-11-10T10:42:39.554Z,10.48
2017-11-10T10:45:06.357Z,9.05
2017-11-10T10:47:32.852Z,10.25
2017-11-10T10:49:59.289Z,12.37
2017-11-10T10:52:25.753Z,10.35
2017-11-10T10:54:52.300Z,13.48
2017-11-10T10:57:18.797Z,7.45
2017-11-10T10:59:45.334Z,10.82
2017-11-10T11:02:12.504Z,11.18
2017-11-10T11:04:39.061Z,12.43
2017-11-10T11:07:05.505Z,12.40
2017-11-10T11:09:32.007Z,13.65
2017-11-10T11:11:59.230Z,12.68
2017-11-10T11:14:26.733Z,11.25
2017-11-10T11:16:53.259Z,14.32
2017-11-10T11:19:20.505Z,11.85
2017-11-10T11:21:47.694Z,11.20
2017-11-10T11:24:14.208Z,14.18
2017-11-10T11:26:41.596Z,17.05
2017-11-10T11:29:08.052Z,14.10
2017-11-10T11:31:34.557Z,13.45
2017-11-10T11:34:00.983Z,14.15
2017-11-10T11:36:28.189Z,13.02
2017-11-10T11:38:54.672Z,13.65
2017-11-10T11:41:21.849Z,15.27
2017-11-10T11:43:49.145Z,14.25
2017-11-10T11:46:15.576Z,15.32
2017-11-10T11:48:42.112Z,15.82
2017-11-10T11:51:08.572Z,12.23
2017-11-10T11:53:35.099Z,14.65
2017-11-10T11:56:01.614Z,16.30
2017-11-10T11:58:28.092Z,15.93
2017-11-10T12:00:54.809Z,17.45
2017-11-10T12:03:21.316Z,14.80
2017-11-10T12:05:48.567Z,14.80
2017-11-10T12:08:15.032Z,14.27
2017-11-10T12:10:41.612Z,12.35
2017-11-10T12:13:08.404Z,16.60
2017-11-10T12:15:35.747Z,12.43
2017-11-10T12:18:02.315Z,14.80
2017-11-10T12:20:28.824Z,12.63
2017-11-10T12:22:55.528Z,13.70
2017-11-10T12:25:22.079Z,13.75
2017-11-10T12:27:48.536Z,13.15
2017-11-10T12:30:15.017Z,21.02
2017-11-10T12:32:41.539Z,10.93
2017-11-10T12:35:08.002Z,11.82
2017-11-10T12:37:34.482Z,11.32
2017-11-10T12:40:00.999Z,15.80
2017-11-10T12:42:27.638Z,12.07
2017-11-10T12:44:54.150Z,14.25
2017-11-10T12:47:21.499Z,16.27
2017-11-10T12:49:47.980Z,15.27
2017-11-10T12:52:21.332Z,11.38
2017-11-10T12:54:47.778Z,15.73
2017-11-10T12:57:15.006Z,12.52
2017-11-10T12:59:41.521Z,15.60
2017-11-10T13:02:08.421Z,11.68
2017-11-10T13:04:35.113Z,11.68
2017-11-10T13:07:01.597Z,13.90
2017-11-10T13:09:28.125Z,19.85
2017-11-10T13:11:55.350Z,14.48
2017-11-10T13:14:21.848Z,14.50
2017-11-10T13:16:48.308Z,14.07
2017-11-10T13:19:14.965Z,9.85
2017-11-10T13:21:41.428Z,13.52
2017-11-10T13:24:07.917Z,16.23
2017-11-10T13:26:35.159Z,16.08
2017-11-10T13:29:01.638Z,12.88
2017-11-10T13:31:28.146Z,13.52
2017-11-10T13:33:55.403Z,13.15
2017-11-10T13:36:22.749Z,9.00
2017-11-10T13:38:49.321Z,10.85
2017-11-10T13:41:16.004Z,13.65
2017-11-10T13:43:42.505Z,16.23
2017-11-10T13:46:08.972Z,15.40
2017-11-10T13:48:35.461Z,15.60
2017-11-10T13:51:02.049Z,15.20
2017-11-10T13:53:28.517Z,15.82
2017-11-10T13:55:55.059Z,14.13
2017-11-10T13:58:36.415Z,11.43
2017-11-10T14:01:02.877Z,14.00
2017-11-10T14:03:29.353Z,16.15
2017-11-10T14:05:56.573Z,13.35
2017-11-10T14:08:23.179Z,9.48
2017-11-10T14:10:49.656Z,14.77
2017-11-10T14:13:16.240Z,8.38
2017-11-10T14:15:43.483Z,15.45
2017-11-10T14:18:10.691Z,18.77
2017-11-10T14:20:37.172Z,17.33
2017-11-10T14:23:03.722Z,17.23
2017-11-10T14:25:31.057Z,14.70
2017-11-10T14:28:11.348Z,21.20
2017-11-10T14:30:38.564Z,18.33
2017-11-10T14:33:05.089Z,10.55
2017-11-10T14:35:31.548Z,13.32
2017-11-10T14:37:58.010Z,11.02
2017-11-10T14:40:25.319Z,17.00
2017-11-10T14:42:51.872Z,13.10
2017-11-10T14:45:18.387Z,16.40
2017-11-10T14:47:44.938Z,12.57
2017-11-10T14:50:11.498Z,11.52
2017-11-10T14:52:37.982Z,13.85
2017-11-10T14:55:05.184Z,12.73
2017-11-10T14:57:31.673Z,16.73
2017-11-10T14:59:58.897Z,12.20
2017-11-10T15:02:25.443Z,19.50
2017-11-10T15:04:51.927Z,11.80
2017-11-10T15:07:18.406Z,11.10
2017-11-10T15:09:46.580Z,17.05
2017-11-10T15:12:13.075Z,10.63
2017-11-10T15:14:40.296Z,11.63
2017-11-10T15:17:08.237Z,13.70
2017-11-10T15:19:34.921Z,11.00
2017-11-10T15:22:01.368Z,7.95
2017-11-10T15:24:28.593Z,8.55
2017-11-10T15:26:55.106Z,8.55
2017-11-10T15:29:21.653Z,8.40
2017-11-10T15:31:48.130Z,10.98
2017-11-10T15:34:14.595Z,12.10
2017-11-10T15:36:41.802Z,10.65
2017-11-10T15:39:08.310Z,9.07
2017-11-10T15:41:34.758Z,9.70
2017-11-10T15:44:01.223Z,5.78
2017-11-10T15:46:27.706Z,5.20
2017-11-10T15:48:54.936Z,7.10
2017-11-10T15:51:21.605Z,4.78
2017-11-10T15:53:49.129Z,6.80
2017-11-10T15:56:15.717Z,6.55
2017-11-10T15:58:42.986Z,4.72
2017-11-10T16:01:09.473Z,6.03
2017-11-10T16:03:35.925Z,6.18
2017-11-10T16:06:02.428Z,6.25
2017-11-10T16:08:28.920Z,5.10
2017-11-10T16:10:56.182Z,7.40
2017-11-10T16:13:23.521Z,7.10
2017-11-10T16:15:50.013Z,4.25
2017-11-10T16:18:16.485Z,6.35
2017-11-10T16:20:43.168Z,6.18
2017-11-10T16:23:10.377Z,11.35
2017-11-10T16:25:36.858Z,8.25
2017-11-10T16:28:04.111Z,4.82
2017-11-10T16:30:30.547Z,9.18
2017-11-10T16:32:56.984Z,7.95
2017-11-10T16:35:24.230Z,3.25
2017-11-10T16:37:50.942Z,5.75
2017-11-10T16:40:17.454Z,6.22
2017-11-10T16:42:44.130Z,14.48
2017-11-10T16:45:10.918Z,5.45
2017-11-10T16:47:37.382Z,7.20
2017-11-10T16:50:04.580Z,5.85
2017-11-10T16:52:31.117Z,7.05
2017-11-10T16:54:57.597Z,4.93
2017-11-10T16:57:24.863Z,3.80
2017-11-10T16:59:52.061Z,5.18
2017-11-10T17:02:18.554Z,6.07
2017-11-10T17:04:45.748Z,10.63
2017-11-10T17:07:12.290Z,4.65
2017-11-10T17:09:38.798Z,4.70
2017-11-10T17:12:05.994Z,4.72
2017-11-10T17:14:33.890Z,5.57
2017-11-10T17:17:00.313Z,3.72
2017-11-10T17:19:26.844Z,8.05
2017-11-10T17:21:53.299Z,15.20
2017-11-10T17:24:19.868Z,6.28
2017-11-10T17:26:47.171Z,7.62
2017-11-10T17:29:13.604Z,9.02
2017-11-10T17:31:40.115Z,5.82
2017-11-10T17:34:07.384Z,5.37
2017-11-10T17:36:34.626Z,5.50
2017-11-10T17:39:01.870Z,6.62
2017-11-10T17:51:18.381Z,9.90
2017-11-10T17:53:45.612Z,7.57
2017-11-10T17:56:12.101Z,7.57
2017-11-10T17:58:39.716Z,6.00
2017-11-10T18:01:07.902Z,6.60
2017-11-10T18:03:34.342Z,6.57
2017-11-10T18:06:00.986Z,6.55
2017-11-10T18:08:27.493Z,9.82
2017-11-10T18:10:55.153Z,7.80
2017-11-10T18:13:21.619Z,7.82
2017-11-10T18:15:48.121Z,5.93
2017-11-10T18:18:14.581Z,8.02
2017-11-10T18:20:41.017Z,7.72
2017-11-10T18:23:07.502Z,6.18
2017-11-10T18:25:34.713Z,6.87
2017-11-10T18:28:01.222Z,9.00
2017-11-10T18:30:27.749Z,6.95
2017-11-10T18:32:55.021Z,16.48
2017-11-10T18:35:21.494Z,9.15
2017-11-10T18:37:48.053Z,5.55
2017-11-10T18:40:21.817Z,11.15
2017-11-10T18:42:48.283Z,10.10
2017-11-10T18:45:14.861Z,6.50
2017-11-10T18:47:42.098Z,8.38
2017-11-10T18:50:08.573Z,6.87
2017-11-10T18:52:35.145Z,9.00
2017-11-10T18:55:02.687Z,9.55
2017-11-10T18:57:29.222Z,8.30
2017-11-10T18:59:55.733Z,5.93
2017-11-10T19:02:22.989Z,8.77
2017-11-10T19:04:49.650Z,8.18
2017-11-10T19:07:16.850Z,15.10
2017-11-10T19:09:44.415Z,17.00
2017-11-10T19:12:12.017Z,9.57
2017-11-10T19:17:33.269Z,6.18
2017-11-10T19:19:59.748Z,7.22
2017-11-10T19:22:26.269Z,5.72
2017-11-10T19:24:52.734Z,6.93
2017-11-10T19:37:10.280Z,10.25
2017-11-10T19:39:47.449Z,7.37
2017-11-10T19:42:13.938Z,5.75
2017-11-10T19:44:40.665Z,4.53
2017-11-10T19:47:07.872Z,4.85
2017-11-10T19:49:34.893Z,3.15
2017-11-10T19:52:01.405Z,3.58
2017-11-10T19:54:28.669Z,4.45
2017-11-10T19:56:59.041Z,3.97
2017-11-10T19:59:25.935Z,4.03
2017-11-10T20:01:53.271Z,5.70
2017-11-10T20:04:19.784Z,6.00
2017-11-10T20:06:46.592Z,5.30
2017-11-10T20:09:13.877Z,5.40
2017-11-10T20:11:42.093Z,3.10
2017-11-10T20:14:09.534Z,4.62
2017-11-10T20:16:39.185Z,3.47
2017-11-10T20:19:05.716Z,2.80
2017-11-10T20:21:32.233Z,4.12
2017-11-10T20:23:59.565Z,4.65
2017-11-10T20:26:26.092Z,5.45
2017-11-10T20:28:52.633Z,4.82
2017-11-10T20:31:19.162Z,7.25
2017-11-10T20:33:46.483Z,3.37
2017-11-10T20:36:13.058Z,4.03
2017-11-10T20:38:40.547Z,4.93
2017-11-10T20:41:07.102Z,3.65
2017-11-10T20:43:33.690Z,7.30
2017-11-10T20:46:00.178Z,4.70
2017-11-10T20:48:27.534Z,4.72
2017-11-10T20:50:54.070Z,3.30
2017-11-10T20:53:20.628Z,6.15
2017-11-10T20:55:47.142Z,7.22
2017-11-10T20:58:13.822Z,6.03
2017-11-10T21:00:40.291Z,9.50
2017-11-10T21:03:08.777Z,8.88
2017-11-10T21:05:35.318Z,7.07
2017-11-10T21:08:04.078Z,5.85
2017-11-10T21:10:30.636Z,7.37
2017-11-10T21:12:57.147Z,5.90
2017-11-10T21:15:24.710Z,7.70
2017-11-10T21:17:51.270Z,7.47
2017-11-10T21:20:17.719Z,5.40
2017-11-10T21:22:46.041Z,9.18
2017-11-10T21:25:12.562Z,5.30
2017-11-10T21:27:39.867Z,6.90
2017-11-10T21:30:06.398Z,7.45
2017-11-10T21:32:32.901Z,6.53
2017-11-10T21:37:33.526Z,4.55
2017-11-10T21:40:00.126Z,4.82
2017-11-10T21:42:26.711Z,8.68
2017-11-10T21:44:53.246Z,8.23
2017-11-10T21:47:19.718Z,8.93
2017-11-10T21:49:46.973Z,6.62
2017-11-10T21:52:14.198Z,8.02
2017-11-10T21:54:40.743Z,9.38
2017-11-10T21:57:07.236Z,6.43
2017-11-10T22:09:23.781Z,5.95
2017-11-10T22:11:50.253Z,7.20
2017-11-10T22:14:17.488Z,8.52
2017-11-10T22:16:44.730Z,8.02
2017-11-10T22:19:11.285Z,6.90
2017-11-10T22:21:37.931Z,9.25
2017-11-10T22:24:05.138Z,9.65
2017-11-10T22:26:31.642Z,9.88
2017-11-10T22:28:58.907Z,8.98
2017-11-10T22:31:26.152Z,7.57
2017-11-10T22:33:52.676Z,10.57
2017-11-10T22:36:19.181Z,7.18
2017-11-10T22:38:45.642Z,7.03
2017-11-10T22:41:12.194Z,8.50
2017-11-10T22:43:38.675Z,8.80
2017-11-10T22:46:05.258Z,10.93
2017-11-10T22:48:31.916Z,10.45
2017-11-10T22:50:58.410Z,6.60
2017-11-10T22:53:24.857Z,8.75
2017-11-10T22:55:51.599Z,11.48
2017-11-10T22:58:18.075Z,19.02
2017-11-10T23:00:44.614Z,12.00
2017-11-10T23:03:11.101Z,7.47
2017-11-10T23:05:37.580Z,10.30
2017-11-10T23:08:04.211Z,14.07
2017-11-10T23:10:45.536Z,10.18
2017-11-10T23:13:11.999Z,14.95
2017-11-10T23:15:39.222Z,14.43
2017-11-10T23:20:47.216Z,13.57
2017-11-10T23:23:13.900Z,10.27
2017-11-10T23:25:40.352Z,15.18
2017-11-10T23:28:07.613Z,8.98
2017-11-10T23:30:34.830Z,5.87
2017-11-10T23:33:01.287Z,5.28
2017-11-10T23:35:27.804Z,8.23
2017-11-10T23:37:54.275Z,4.87
2017-11-10T23:40:20.711Z,8.05
2017-11-10T23:42:47.222Z,7.68
2017-11-10T23:45:13.729Z,11.35
2017-11-10T23:47:40.377Z,8.05
2017-11-10T23:50:06.913Z,10.63
2017-11-10T23:52:33.385Z,2.70
2017-11-10T23:54:59.855Z,8.05
2017-11-10T23:57:26.310Z,4.35
2017-11-10T23:59:53.589Z,6.47
